createdAt,value
2017-10-13T00:00:47.804Z,97.93
2017-10-13T00:03:16.152Z,97.95
2017-10-13T00:05:44.491Z,98.16
2017-10-13T00:08:12.871Z,99.42
2017-10-13T00:10:41.216Z,99.38
2017-10-13T00:13:09.559Z,99.22
2017-10-13T00:15:37.914Z,99.17
2017-10-13T00:18:06.267Z,98.31
2017-10-13T00:20:34.630Z,97.92
2017-10-13T00:23:02.979Z,97.70
2017-10-13T00:25:31.327Z,97.45
2017-10-13T00:27:59.707Z,98.12
2017-10-13T00:30:28.239Z,97.79
2017-10-13T00:32:56.588Z,97.38
2017-10-13T00:35:24.960Z,98.27
2017-10-13T00:37:53.303Z,98.59
2017-10-13T00:40:21.656Z,99.50
2017-10-13T00:42:50.000Z,99.78
2017-10-13T00:45:18.342Z,100.00
2017-10-13T00:47:46.700Z,100.00
2017-10-13T00:50:15.074Z,99.89
2017-10-13T00:52:43.423Z,100.00
2017-10-13T00:55:11.777Z,99.42
2017-10-13T00:57:40.141Z,98.63
2017-10-13T01:00:08.512Z,98.45
2017-10-13T01:02:36.855Z,98.47
2017-10-13T01:05:05.203Z,98.87
2017-10-13T01:07:33.548Z,98.45
2017-10-13T01:10:02.465Z,98.40
2017-10-13T01:12:30.838Z,98.38
2017-10-13T01:14:59.184Z,98.86
2017-10-13T01:17:27.536Z,99.66
2017-10-13T01:19:55.910Z,99.91
2017-10-13T01:22:24.270Z,100.00
2017-10-13T01:24:52.606Z,100.00
2017-10-13T01:27:20.955Z,100.00
2017-10-13T01:29:49.308Z,100.00
2017-10-13T01:32:17.650Z,100.00
2017-10-13T01:34:46.005Z,100.00
2017-10-13T01:37:14.354Z,100.00
2017-10-13T01:39:42.710Z,100.00
2017-10-13T01:42:11.069Z,100.00
2017-10-13T01:44:39.449Z,100.00
2017-10-13T01:47:07.799Z,100.00
2017-10-13T01:49:36.383Z,100.00
2017-10-13T01:52:04.732Z,100.00
2017-10-13T01:54:33.082Z,100.00
2017-10-13T01:57:01.443Z,100.00
2017-10-13T01:59:29.795Z,100.00
2017-10-13T02:01:58.139Z,100.00
2017-10-13T02:04:26.492Z,100.00
2017-10-13T02:06:54.842Z,100.00
2017-10-13T02:09:23.195Z,100.00
2017-10-13T02:11:51.557Z,100.00
2017-10-13T02:14:19.976Z,100.00
2017-10-13T02:16:48.324Z,100.00
2017-10-13T02:19:16.677Z,100.00
2017-10-13T02:21:45.031Z,100.00
2017-10-13T02:24:13.388Z,100.00
2017-10-13T02:26:41.731Z,100.00
2017-10-13T02:29:10.071Z,99.82
2017-10-13T02:31:38.447Z,100.00
2017-10-13T02:34:06.811Z,100.00
2017-10-13T02:36:35.168Z,100.00
2017-10-13T02:39:03.518Z,100.00
2017-10-13T02:41:31.876Z,100.00
2017-10-13T02:44:00.256Z,100.00
2017-10-13T02:46:28.619Z,100.00
2017-10-13T02:48:56.963Z,100.00
2017-10-13T02:51:25.315Z,100.00
2017-10-13T02:53:53.667Z,100.00
2017-10-13T02:56:22.030Z,100.00
2017-10-13T02:58:50.386Z,100.00
2017-10-13T03:01:18.747Z,100.00
2017-10-13T03:03:47.096Z,100.00
2017-10-13T03:06:15.463Z,100.00
2017-10-13T03:08:43.810Z,100.00
2017-10-13T03:11:12.244Z,100.00
2017-10-13T03:13:40.591Z,100.00
2017-10-13T03:16:09.303Z,100.00
2017-10-13T03:18:37.652Z,100.00
2017-10-13T03:21:06.036Z,100.00
2017-10-13T03:23:34.379Z,100.00
2017-10-13T03:26:02.732Z,100.00
2017-10-13T03:28:31.088Z,100.00
2017-10-13T03:30:59.455Z,100.00
2017-10-13T03:33:27.803Z,100.00
2017-10-13T03:35:56.159Z,100.00
2017-10-13T03:38:24.539Z,100.00
2017-10-13T03:40:52.883Z,100.00
2017-10-13T03:43:21.235Z,100.00
2017-10-13T03:45:49.592Z,100.00
2017-10-13T03:48:17.974Z,100.00
2017-10-13T03:50:46.323Z,100.00
2017-10-13T03:53:14.678Z,100.00
2017-10-13T03:55:43.037Z,100.00
2017-10-13T03:58:11.410Z,100.00
2017-10-13T04:00:39.763Z,100.00
2017-10-13T04:03:08.119Z,100.00
2017-10-13T04:05:36.467Z,100.00
2017-10-13T04:08:04.831Z,100.00
2017-10-13T04:10:33.175Z,100.00
2017-10-13T04:13:01.528Z,100.00
2017-10-13T04:15:29.871Z,100.00
2017-10-13T04:17:58.231Z,100.00
2017-10-13T04:20:26.608Z,100.00
2017-10-13T04:22:54.958Z,100.00
2017-10-13T04:25:23.339Z,100.00
2017-10-13T04:27:51.685Z,100.00
2017-10-13T04:30:20.044Z,100.00
2017-10-13T04:32:48.396Z,100.00
2017-10-13T04:35:16.742Z,100.00
2017-10-13T04:37:45.111Z,100.00
2017-10-13T04:40:13.487Z,100.00
2017-10-13T04:42:41.839Z,100.00
2017-10-13T04:45:10.188Z,100.00
2017-10-13T04:47:38.530Z,100.00
2017-10-13T04:50:06.879Z,100.00
2017-10-13T04:52:35.231Z,100.00
2017-10-13T04:55:03.597Z,100.00
2017-10-13T04:57:31.952Z,100.00
2017-10-13T05:00:00.318Z,100.00
2017-10-13T05:02:28.706Z,100.00
2017-10-13T05:04:57.060Z,100.00
2017-10-13T05:07:25.423Z,100.00
2017-10-13T05:09:53.767Z,100.00
2017-10-13T05:12:22.122Z,100.00
2017-10-13T05:14:50.470Z,100.00
2017-10-13T05:17:18.831Z,100.00
2017-10-13T05:19:47.183Z,100.00
2017-10-13T05:22:15.526Z,100.00
2017-10-13T05:24:43.885Z,100.00
2017-10-13T05:27:12.236Z,100.00
2017-10-13T05:29:40.583Z,100.00
2017-10-13T05:32:08.943Z,100.00
2017-10-13T05:34:37.317Z,100.00
2017-10-13T05:37:05.667Z,100.00
2017-10-13T05:39:34.023Z,100.00
2017-10-13T05:42:02.373Z,100.00
2017-10-13T05:44:30.724Z,100.00
2017-10-13T05:46:59.073Z,100.00
2017-10-13T05:49:27.450Z,100.00
2017-10-13T05:51:55.807Z,100.00
2017-10-13T05:54:24.155Z,100.00
2017-10-13T05:56:52.552Z,100.00
2017-10-13T05:59:20.907Z,100.00
2017-10-13T06:01:49.263Z,100.00
2017-10-13T06:04:17.648Z,100.00
2017-10-13T06:06:46.515Z,100.00
2017-10-13T06:09:14.869Z,100.00
2017-10-13T06:11:43.223Z,100.00
2017-10-13T06:14:11.575Z,100.00
2017-10-13T06:16:39.959Z,100.00
2017-10-13T06:19:08.333Z,100.00
2017-10-13T06:21:36.686Z,100.00
2017-10-13T06:24:05.043Z,100.00
2017-10-13T06:26:33.403Z,100.00
2017-10-13T06:29:01.754Z,100.00
2017-10-13T06:31:30.116Z,100.00
2017-10-13T06:33:58.476Z,100.00
2017-10-13T06:36:26.831Z,100.00
2017-10-13T06:38:55.188Z,100.00
2017-10-13T06:41:23.558Z,100.00
2017-10-13T06:43:51.908Z,100.00
2017-10-13T06:46:20.272Z,100.00
2017-10-13T06:48:48.628Z,100.00
2017-10-13T06:51:16.988Z,100.00
2017-10-13T06:53:45.347Z,100.00
2017-10-13T06:56:13.703Z,100.00
2017-10-13T06:58:42.064Z,100.00
2017-10-13T07:01:10.415Z,100.00
2017-10-13T07:03:38.762Z,100.00
2017-10-13T07:06:07.124Z,100.00
2017-10-13T07:08:35.478Z,100.00
2017-10-13T07:11:03.832Z,100.00
2017-10-13T07:13:32.225Z,100.00
2017-10-13T07:16:00.588Z,100.00
2017-10-13T07:18:28.963Z,100.00
2017-10-13T07:20:57.323Z,100.00
2017-10-13T07:23:25.689Z,100.00
2017-10-13T07:25:54.045Z,100.00
2017-10-13T07:28:22.398Z,100.00
2017-10-13T07:30:50.776Z,100.00
2017-10-13T07:33:19.133Z,100.00
2017-10-13T07:35:47.492Z,100.00
2017-10-13T07:38:15.854Z,100.00
2017-10-13T07:40:44.238Z,100.00
2017-10-13T07:43:12.596Z,100.00
2017-10-13T07:45:40.953Z,100.00
2017-10-13T07:48:09.312Z,100.00
2017-10-13T07:50:37.664Z,99.48
2017-10-13T07:53:06.054Z,99.71
2017-10-13T07:55:34.396Z,98.74
2017-10-13T07:58:02.784Z,99.48
2017-10-13T08:00:31.133Z,100.00
2017-10-13T08:02:59.496Z,100.00
2017-10-13T08:05:27.847Z,100.00
2017-10-13T08:07:56.195Z,100.00
2017-10-13T08:10:25.174Z,100.00
2017-10-13T08:12:53.530Z,100.00
2017-10-13T08:15:21.892Z,100.00
2017-10-13T08:17:50.252Z,100.00
2017-10-13T08:20:18.646Z,100.00
2017-10-13T08:22:47.005Z,100.00
2017-10-13T08:25:15.361Z,100.00
2017-10-13T08:27:43.717Z,100.00
2017-10-13T08:30:12.071Z,100.00
2017-10-13T08:32:40.426Z,100.00
2017-10-13T08:35:08.788Z,100.00
2017-10-13T08:37:37.167Z,100.00
2017-10-13T08:40:05.520Z,96.14
2017-10-13T08:42:33.863Z,96.31
2017-10-13T08:45:02.213Z,96.93
2017-10-13T08:47:30.579Z,97.89
2017-10-13T08:49:58.945Z,98.82
2017-10-13T08:52:27.291Z,99.90
2017-10-13T08:54:55.643Z,100.00
2017-10-13T08:57:24.295Z,98.56
2017-10-13T08:59:52.639Z,97.42
2017-10-13T09:02:20.980Z,94.73
2017-10-13T09:04:49.331Z,93.82
2017-10-13T09:07:17.675Z,88.26
2017-10-13T09:09:46.026Z,83.75
2017-10-13T09:12:14.416Z,87.88
2017-10-13T09:14:42.752Z,90.73
2017-10-13T09:17:11.091Z,90.60
2017-10-13T09:19:39.444Z,92.06
2017-10-13T09:22:08.711Z,92.04
2017-10-13T09:24:37.059Z,93.67
2017-10-13T09:27:05.404Z,92.13
2017-10-13T09:29:33.757Z,94.25
2017-10-13T09:32:02.255Z,94.48
2017-10-13T09:34:30.604Z,96.74
2017-10-13T09:36:58.967Z,97.11
2017-10-13T09:39:27.303Z,94.92
2017-10-13T09:41:55.660Z,93.28
2017-10-13T09:44:24.055Z,90.17
2017-10-13T09:46:52.395Z,89.47
2017-10-13T09:49:20.746Z,88.86
2017-10-13T09:51:49.111Z,88.91
2017-10-13T09:54:17.451Z,87.80
2017-10-13T09:56:45.784Z,90.13
2017-10-13T09:59:14.132Z,91.21
2017-10-13T10:01:42.833Z,92.16
2017-10-13T10:04:11.172Z,92.74
2017-10-13T10:06:39.511Z,91.91
2017-10-13T10:09:07.847Z,91.77
2017-10-13T10:11:36.211Z,92.23
2017-10-13T10:14:04.580Z,92.67
2017-10-13T10:16:32.924Z,93.53
2017-10-13T10:19:01.275Z,93.78
2017-10-13T10:21:29.627Z,94.28
2017-10-13T10:23:57.968Z,93.96
2017-10-13T10:26:26.318Z,94.74
2017-10-13T10:28:54.657Z,93.67
2017-10-13T10:31:22.995Z,90.82
2017-10-13T10:33:51.339Z,90.00
2017-10-13T10:36:19.687Z,91.17
2017-10-13T10:38:48.035Z,91.58
2017-10-13T10:41:16.859Z,91.07
2017-10-13T10:43:45.203Z,92.96
2017-10-13T10:46:13.534Z,93.63
2017-10-13T10:48:41.878Z,94.70
2017-10-13T10:51:10.279Z,95.39
2017-10-13T10:53:38.616Z,94.94
2017-10-13T10:56:06.953Z,96.79
2017-10-13T10:58:35.304Z,95.07
2017-10-13T11:01:03.651Z,94.32
2017-10-13T11:03:32.024Z,92.66
2017-10-13T11:06:01.264Z,90.99
2017-10-13T11:08:29.611Z,89.72
2017-10-13T11:10:57.955Z,88.94
2017-10-13T11:13:26.323Z,88.63
2017-10-13T11:15:54.675Z,88.14
2017-10-13T11:18:23.015Z,88.54
2017-10-13T11:20:51.357Z,89.06
2017-10-13T11:23:19.695Z,89.03
2017-10-13T11:25:48.039Z,89.52
2017-10-13T11:28:16.383Z,90.12
2017-10-13T11:30:44.756Z,90.33
2017-10-13T11:33:13.104Z,89.59
2017-10-13T11:35:41.454Z,89.72
2017-10-13T11:38:09.800Z,89.68
2017-10-13T11:40:38.149Z,90.14
2017-10-13T11:43:06.490Z,89.54
2017-10-13T11:45:34.839Z,89.66
2017-10-13T11:48:03.183Z,91.44
2017-10-13T11:50:31.558Z,91.79
2017-10-13T11:52:59.903Z,92.45
2017-10-13T11:55:28.259Z,90.89
2017-10-13T11:57:56.599Z,91.90
2017-10-13T12:00:24.951Z,93.03
2017-10-13T12:02:53.291Z,93.91
2017-10-13T12:05:21.661Z,92.93
2017-10-13T12:07:50.003Z,91.89
2017-10-13T12:10:18.349Z,91.03
2017-10-13T12:12:46.714Z,91.09
2017-10-13T12:15:15.065Z,91.11
2017-10-13T12:17:43.404Z,92.38
2017-10-13T12:20:11.747Z,92.16
2017-10-13T12:22:40.091Z,91.32
2017-10-13T12:25:08.436Z,91.43
2017-10-13T12:27:36.775Z,92.47
2017-10-13T12:30:05.124Z,92.70
2017-10-13T12:32:33.480Z,91.91
2017-10-13T12:35:01.839Z,90.82
2017-10-13T12:37:30.180Z,90.14
2017-10-13T12:39:58.531Z,88.79
2017-10-13T12:42:26.889Z,88.83
2017-10-13T12:44:55.256Z,88.19
2017-10-13T12:47:23.597Z,86.86
2017-10-13T12:49:51.939Z,86.09
2017-10-13T12:52:20.280Z,86.71
2017-10-13T12:54:48.646Z,87.81
2017-10-13T12:57:17.181Z,88.36
2017-10-13T12:59:45.533Z,87.91
2017-10-13T13:02:13.903Z,88.51
2017-10-13T13:04:42.530Z,87.86
2017-10-13T13:07:10.864Z,87.37
2017-10-13T13:09:39.236Z,86.17
2017-10-13T13:12:07.587Z,86.45
2017-10-13T13:14:35.927Z,86.17
2017-10-13T13:17:04.266Z,86.71
2017-10-13T13:19:32.603Z,86.77
2017-10-13T13:22:01.123Z,85.48
2017-10-13T13:24:29.536Z,85.48
2017-10-13T13:26:57.881Z,86.49
2017-10-13T13:29:26.225Z,85.58
2017-10-13T13:31:54.567Z,86.37
2017-10-13T13:34:22.911Z,86.65
2017-10-13T13:36:51.266Z,86.07
2017-10-13T13:39:20.475Z,86.47
2017-10-13T13:41:48.823Z,86.08
2017-10-13T13:44:17.176Z,86.19
2017-10-13T13:46:45.551Z,86.33
2017-10-13T13:49:13.902Z,86.27
2017-10-13T13:51:42.244Z,86.94
2017-10-13T13:54:10.591Z,86.10
2017-10-13T13:56:38.942Z,85.16
2017-10-13T13:59:07.328Z,85.96
2017-10-13T14:01:35.694Z,85.46
2017-10-13T14:04:04.050Z,86.09
2017-10-13T14:06:32.400Z,85.32
2017-10-13T14:09:00.758Z,85.87
2017-10-13T14:11:29.132Z,85.34
2017-10-13T14:13:57.479Z,84.58
2017-10-13T14:16:25.864Z,85.92
2017-10-13T14:18:54.258Z,86.32
2017-10-13T14:21:22.612Z,86.83
2017-10-13T14:23:50.993Z,87.55
2017-10-13T14:26:19.340Z,87.74
2017-10-13T14:28:47.687Z,87.21
2017-10-13T14:31:16.053Z,86.80
2017-10-13T14:33:44.410Z,88.61
2017-10-13T14:36:12.766Z,88.59
2017-10-13T14:38:41.120Z,87.83
2017-10-13T14:41:09.466Z,88.00
2017-10-13T14:43:37.833Z,88.96
2017-10-13T14:46:06.211Z,89.10
2017-10-13T14:48:34.567Z,88.76
2017-10-13T14:51:02.915Z,89.34
2017-10-13T14:53:31.273Z,89.22
2017-10-13T14:55:59.626Z,89.51
2017-10-13T14:58:27.978Z,89.56
2017-10-13T15:00:56.327Z,89.40
2017-10-13T15:03:24.690Z,89.12
2017-10-13T15:05:53.053Z,89.63
2017-10-13T15:08:21.391Z,89.94
2017-10-13T15:10:49.752Z,90.35
2017-10-13T15:13:18.111Z,90.44
2017-10-13T15:15:46.483Z,91.01
2017-10-13T15:18:14.841Z,90.60
2017-10-13T15:20:43.189Z,91.85
2017-10-13T15:23:11.635Z,92.57
2017-10-13T15:25:46.573Z,93.08
2017-10-13T15:28:20.516Z,93.66
2017-10-13T15:30:54.492Z,93.79
2017-10-13T15:33:28.324Z,94.79
2017-10-13T15:36:02.291Z,94.82
2017-10-13T15:38:36.070Z,94.45
2017-10-13T15:41:09.988Z,94.91
2017-10-13T15:43:43.836Z,94.80
2017-10-13T15:46:17.735Z,95.50
2017-10-13T15:48:46.091Z,96.55
2017-10-13T15:51:19.964Z,97.66
2017-10-13T15:53:48.320Z,98.26
2017-10-13T15:56:16.675Z,98.55
2017-10-13T15:58:45.049Z,97.78
2017-10-13T16:01:13.401Z,98.66
2017-10-13T16:03:41.761Z,100.00
2017-10-13T16:06:10.115Z,100.00
2017-10-13T16:08:38.467Z,100.00
2017-10-13T16:11:06.831Z,100.00
2017-10-13T16:13:35.449Z,100.00
2017-10-13T16:16:03.808Z,100.00
2017-10-13T16:18:32.157Z,100.00
2017-10-13T16:21:00.525Z,100.00
2017-10-13T16:23:29.051Z,100.00
2017-10-13T16:25:57.628Z,100.00
2017-10-13T16:28:25.988Z,100.00
2017-10-13T16:30:54.347Z,100.00
2017-10-13T16:33:22.704Z,100.00
2017-10-13T16:35:51.064Z,100.00
2017-10-13T16:38:19.422Z,100.00
2017-10-13T16:40:47.791Z,100.00
2017-10-13T16:43:16.147Z,100.00
2017-10-13T16:45:44.530Z,100.00
2017-10-13T16:48:12.888Z,100.00
2017-10-13T16:50:41.244Z,100.00
2017-10-13T16:53:09.612Z,100.00
2017-10-13T16:55:37.969Z,100.00
2017-10-13T16:58:06.731Z,100.00
2017-10-13T17:00:35.158Z,100.00
2017-10-13T17:03:03.515Z,100.00
2017-10-13T17:05:31.875Z,100.00
2017-10-13T17:08:00.241Z,100.00
2017-10-13T17:10:28.598Z,100.00
2017-10-13T17:12:56.990Z,100.00
2017-10-13T17:15:25.355Z,100.00
2017-10-13T17:17:53.715Z,100.00
2017-10-13T17:20:22.113Z,100.00
2017-10-13T17:22:50.476Z,100.00
2017-10-13T17:25:18.845Z,100.00
2017-10-13T17:27:47.249Z,100.00
2017-10-13T17:30:15.626Z,100.00
2017-10-13T17:32:44.007Z,100.00
2017-10-13T17:35:12.367Z,100.00
2017-10-13T17:37:40.774Z,100.00
2017-10-13T17:40:09.127Z,100.00
2017-10-13T17:42:37.543Z,100.00
2017-10-13T17:45:05.908Z,100.00
2017-10-13T17:47:34.264Z,100.00
2017-10-13T17:50:02.653Z,100.00
2017-10-13T17:52:31.011Z,100.00
2017-10-13T17:54:59.377Z,100.00
2017-10-13T17:57:27.761Z,100.00
2017-10-13T17:59:56.125Z,100.00
2017-10-13T18:02:24.504Z,100.00
2017-10-13T18:04:52.855Z,100.00
2017-10-13T18:07:21.219Z,100.00
2017-10-13T18:09:49.602Z,100.00
2017-10-13T18:12:17.966Z,100.00
2017-10-13T18:14:46.324Z,100.00
2017-10-13T18:17:14.791Z,100.00
2017-10-13T18:19:43.180Z,100.00
2017-10-13T18:22:11.546Z,100.00
2017-10-13T18:24:39.937Z,100.00
2017-10-13T18:27:08.290Z,100.00
2017-10-13T18:29:36.691Z,100.00
2017-10-13T18:32:05.044Z,100.00
2017-10-13T18:34:33.426Z,100.00
2017-10-13T18:37:01.815Z,100.00
2017-10-13T18:39:30.259Z,100.00
2017-10-13T18:41:59.071Z,100.00
2017-10-13T18:44:27.428Z,100.00
2017-10-13T18:46:55.830Z,100.00
2017-10-13T18:49:24.195Z,100.00
2017-10-13T18:51:52.556Z,100.00
2017-10-13T18:54:20.965Z,100.00
2017-10-13T18:56:49.319Z,100.00
2017-10-13T18:59:17.676Z,100.00
2017-10-13T19:01:46.072Z,100.00
2017-10-13T19:04:14.443Z,100.00
2017-10-13T19:06:42.929Z,100.00
2017-10-13T19:09:11.379Z,100.00
2017-10-13T19:11:39.746Z,100.00
2017-10-13T19:14:08.107Z,100.00
2017-10-13T19:16:36.488Z,100.00
2017-10-13T19:19:04.875Z,100.00
2017-10-13T19:21:33.230Z,100.00
2017-10-13T19:24:01.623Z,100.00
2017-10-13T19:26:29.987Z,100.00
2017-10-13T19:28:58.367Z,100.00
2017-10-13T19:31:26.760Z,100.00
2017-10-13T19:33:55.517Z,100.00
2017-10-13T19:36:23.920Z,100.00
2017-10-13T19:38:52.279Z,100.00
2017-10-13T19:41:20.668Z,100.00
2017-10-13T19:43:49.037Z,100.00
2017-10-13T19:46:19.273Z,100.00
2017-10-13T19:48:47.872Z,100.00
2017-10-13T19:51:16.232Z,100.00
2017-10-13T19:53:44.621Z,100.00
2017-10-13T19:56:13.175Z,100.00
2017-10-13T19:58:41.572Z,100.00
2017-10-13T20:01:09.944Z,100.00
2017-10-13T20:03:38.535Z,100.00
2017-10-13T20:06:07.178Z,100.00
2017-10-13T20:08:36.280Z,100.00
2017-10-13T20:11:04.741Z,100.00
2017-10-13T20:13:33.112Z,100.00
2017-10-13T20:16:01.552Z,100.00
2017-10-13T20:18:30.323Z,100.00
2017-10-13T20:20:58.680Z,100.00
2017-10-13T20:23:27.039Z,100.00
2017-10-13T20:25:55.395Z,100.00
2017-10-13T20:28:23.760Z,100.00
2017-10-13T20:30:52.115Z,100.00
2017-10-13T20:33:20.478Z,100.00
2017-10-13T20:35:48.835Z,100.00
2017-10-13T20:38:17.213Z,100.00
2017-10-13T20:40:45.573Z,100.00
2017-10-13T20:43:13.927Z,100.00
2017-10-13T20:45:42.286Z,100.00
2017-10-13T20:48:10.644Z,100.00
2017-10-13T20:50:38.999Z,100.00
2017-10-13T20:53:07.363Z,100.00
2017-10-13T20:55:35.735Z,100.00
2017-10-13T20:58:04.091Z,100.00
2017-10-13T21:00:32.449Z,100.00
2017-10-13T21:03:00.816Z,100.00
2017-10-13T21:05:29.323Z,100.00
2017-10-13T21:07:57.683Z,100.00
2017-10-13T21:10:26.474Z,100.00
2017-10-13T21:12:54.940Z,100.00
2017-10-13T21:15:23.384Z,100.00
2017-10-13T21:17:51.747Z,100.00
2017-10-13T21:20:20.105Z,100.00
2017-10-13T21:22:48.556Z,100.00
2017-10-13T21:25:16.919Z,100.00
2017-10-13T21:27:45.306Z,100.00
2017-10-13T21:30:13.660Z,100.00
2017-10-13T21:32:42.047Z,100.00
2017-10-13T21:35:10.469Z,100.00
2017-10-13T21:37:38.823Z,100.00
2017-10-13T21:40:07.195Z,100.00
2017-10-13T21:42:35.590Z,100.00
2017-10-13T21:45:03.939Z,100.00
2017-10-13T21:47:32.348Z,100.00
2017-10-13T21:50:00.695Z,100.00
2017-10-13T21:52:29.047Z,100.00
2017-10-13T21:54:57.430Z,100.00
2017-10-13T21:57:25.799Z,100.00
2017-10-13T21:59:54.198Z,100.00
2017-10-13T22:02:22.580Z,100.00
2017-10-13T22:04:56.484Z,100.00
2017-10-13T22:07:24.888Z,100.00
2017-10-13T22:09:53.247Z,100.00
2017-10-13T22:12:21.758Z,100.00
2017-10-13T22:14:50.103Z,100.00
2017-10-13T22:17:18.503Z,100.00
2017-10-13T22:19:46.852Z,100.00
2017-10-13T22:22:15.235Z,100.00
2017-10-13T22:24:43.596Z,100.00
2017-10-13T22:27:11.955Z,100.00
2017-10-13T22:29:40.312Z,100.00
2017-10-13T22:32:08.672Z,100.00
2017-10-13T22:34:37.057Z,100.00
2017-10-13T22:37:05.463Z,100.00
2017-10-13T22:39:33.827Z,100.00
2017-10-13T22:42:03.011Z,100.00
2017-10-13T22:44:31.399Z,100.00
2017-10-13T22:46:59.886Z,100.00
2017-10-13T22:49:28.268Z,100.00
2017-10-13T22:51:56.637Z,100.00
2017-10-13T22:54:25.023Z,100.00
2017-10-13T22:56:53.407Z,100.00
2017-10-13T22:59:21.784Z,100.00
2017-10-13T23:01:50.146Z,100.00
2017-10-13T23:04:18.499Z,100.00
2017-10-13T23:06:46.855Z,100.00
2017-10-13T23:09:15.239Z,100.00
2017-10-13T23:11:43.632Z,100.00
2017-10-13T23:14:12.020Z,100.00
2017-10-13T23:16:40.374Z,100.00
2017-10-13T23:19:08.767Z,100.00
2017-10-13T23:21:37.129Z,100.00
2017-10-13T23:24:05.516Z,100.00
2017-10-13T23:26:33.872Z,100.00
2017-10-13T23:29:02.511Z,100.00
2017-10-13T23:31:30.870Z,100.00
2017-10-13T23:33:59.263Z,100.00
2017-10-13T23:36:27.619Z,100.00
2017-10-13T23:38:55.980Z,100.00
2017-10-13T23:41:24.336Z,100.00
2017-10-13T23:43:52.691Z,100.00
2017-10-13T23:46:21.079Z,100.00
2017-10-13T23:48:49.439Z,100.00
2017-10-13T23:51:17.800Z,100.00
2017-10-13T23:53:46.188Z,100.00
2017-10-13T23:56:14.575Z,100.00
2017-10-13T23:58:43.269Z,100.00
